Date,TemperatureHighF,TemperatureAvgF,TemperatureLowF,DewpointHighF,DewpointAvgF,DewpointLowF,HumidityHigh,HumidityAvg,HumidityLow,PressureMaxIn,PressureMinIn,WindSpeedMaxMPH,WindSpeedAvgMPH,GustSpeedMaxMPH,PrecipitationSumIn
2013-2-1,66.0,49.9,40.6,51.3,41.5,36.1,88,74,59,30.27,30.18,11,1,11,0.00
2013-2-2,65.8,50.1,34.5,53.0,42.7,29.9,94,77,61,30.21,30.06,12,2,12,0.00
2013-2-3,68.5,55.4,43.7,55.0,47.6,39.9,100,77,58,30.15,30.00,13,2,13,0.00
2013-2-4,63.5,53.4,40.3,59.2,47.3,36.8,100,81,62,30.00,29.83,8,2,8,0.00
2013-2-5,69.6,61.7,54.1,60.4,57.7,52.5,100,88,66,29.91,29.80,12,2,12,0.00
2013-2-6,69.1,60.7,53.4,61.7,57.5,51.9,100,90,66,30.00,29.85,12,3,12,1.00
2013-2-7,77.9,65.1,54.5,63.2,59.2,31.4,100,83,61,29.85,29.65,19,4,19,1.94
2013-2-8,75.6,59.8,51.1,63.0,55.7,49.5,100,88,64,30.03,29.83,13,1,13,0.00
2013-2-9,66.0,56.9,49.6,61.7,49.8,44.1,99,77,67,30.12,29.94,12,5,12,0.00
2013-2-10,69.1,66.5,62.2,68.4,64.2,59.7,100,93,80,29.94,29.83,18,6,18,0.00
2013-2-11,68.7,62.6,58.3,68.7,61.5,56.3,100,97,76,29.97,29.85,15,4,15,0.28
2013-2-12,68.5,62.5,57.9,68.5,62.4,57.9,100,100,94,29.91,29.62,15,4,15,0.20
2013-2-13,66.6,56.4,43.2,66.6,53.7,40.6,100,91,72,29.94,29.65,17,4,17,0.16
2013-2-14,61.5,48.6,39.9,49.7,43.1,38.1,99,83,65,30.03,29.91,10,2,10,0.00
2013-2-15,66.9,51.1,36.1,54.4,43.9,34.6,100,78,62,30.03,29.94,13,2,13,0.00
2013-2-16,57.0,47.7,33.8,44.8,37.2,25.7,79,67,61,30.15,29.97,20,4,20,0.00
2013-2-17,59.0,48.3,30.0,46.4,37.3,25.2,88,66,61,30.27,30.12,11,3,11,0.00
2013-2-18,67.8,59.1,51.3,59.8,50.9,39.3,93,75,61,30.12,29.88,14,7,16,0.00
2013-2-19,69.1,60.0,44.2,61.5,51.9,32.7,100,76,61,30.09,29.85,18,4,18,0.31
2013-2-20,60.6,52.8,43.0,48.0,40.7,32.2,83,64,61,30.12,29.91,11,4,12,0.00
2013-2-21,66.0,58.4,48.4,64.4,52.0,36.4,100,80,62,29.91,29.68,16,5,16,0.00
2013-2-22,69.6,64.6,59.2,68.2,60.6,54.2,100,88,64,29.85,29.74,13,3,13,1.46
2013-2-23,61.9,58.9,56.7,59.8,56.4,49.0,100,92,73,29.83,29.68,23,3,23,1.50
2013-2-24,70.0,59.2,48.2,60.8,51.9,46.0,100,78,66,29.85,29.65,13,4,13,0.35
2013-2-25,67.6,62.9,60.3,67.6,62.2,51.0,100,98,71,29.65,29.35,20,6,20,4.49
2013-2-26,63.0,56.1,48.7,51.8,45.6,38.5,83,68,63,29.80,29.41,17,5,17,0.04
2013-2-27,68.2,57.1,47.5,55.0,49.4,43.4,97,77,61,29.91,29.80,13,3,13,0.04
2013-2-28,62.1,52.1,42.3,49.2,41.2,35.5,86,67,61,29.97,29.88,17,3,17,0.04